Flight Track Log - Related Links

Times and Time Zones

All times are in EDT time to prevent confusion due to time zone crossing. See the N357FE flight status page for this flight to view local times or setup timezone preferences in your user account.

Time Position Orientation Groundspeed Altitude Reporting Facility
EDT Latitude Longitude Course Direction KTS MPH feet Rate Location/Type
Sun 07:31:08 AM 38.9430 -77.5090 246° West 182 209 1,500  Level FlightAware ADS-B
Sun 07:31:23 AM 38.9370 -77.5250 244° Southwest 203 234 1,900 1,500 Climbing FlightAware ADS-B
Sun 07:31:48 AM 38.9260 -77.5550 245° Southwest 238 274 2,500 2,267 Climbing FlightAware ADS-B
Sun 07:32:08 AM 38.9180 -77.5820 249° West 238 274 3,600 3,771 Climbing FlightAware ADS-B
Sun 07:32:23 AM 38.9120 -77.6010 248° West 231 266 4,700 3,750 Climbing FlightAware ADS-B
Sun 07:32:48 AM 38.9020 -77.6350 249° West 238 274 6,100 2,291 Climbing FlightAware ADS-B
Sun 07:33:18 AM 38.8870 -77.6740 244° Southwest 238 274 6,800 873 Climbing FlightAware ADS-B
Sun 07:33:43 AM 38.8740 -77.7050 242° Southwest 236 272 6,900 109 Climbing FlightAware ADS-B
Sun 07:34:13 AM 38.8570 -77.7410 239° Southwest 240 276 6,900 436 Level FlightAware ADS-B
Sun 07:34:38 AM 38.8430 -77.7710 239° Southwest 241 277 7,300 1,350 Climbing FlightAware ADS-B
Sun 07:34:53 AM 38.8370 -77.7920 250° West 234 269 7,800 2,200 Climbing FlightAware ADS-B
Sun 07:35:08 AM 38.8370 -77.8120 270° West 227 261 8,400 2,600 Climbing FlightAware ADS-B
Sun 07:35:23 AM 38.8380 -77.8310 274° West 229 264 9,100 2,291 Climbing FlightAware ADS-B
Sun 07:36:03 AM 38.8400 -77.8880 273° West 261 300 10,500 1,341 Climbing FlightAware ADS-B
Sun 07:36:48 AM 38.8440 -77.9660 274° West 320 368 11,000 1,412 Climbing FlightAware ADS-B
Sun 07:37:28 AM 38.8480 -78.0470 274° West 336 387 12,500 2,325 Climbing FlightAware ADS-B
Sun 07:38:08 AM 38.8510 -78.1280 273° West 348 400 14,100 2,400 Climbing FlightAware ADS-B
Sun 07:38:53 AM 38.8520 -78.2220 271° West 358 412 15,900 2,188 Climbing FlightAware ADS-B
Sun 07:39:33 AM 38.8420 -78.3070 261° West 367 422 17,200 2,025 Climbing FlightAware ADS-B
Sun 07:40:13 AM 38.8310 -78.3940 261° West 372 428 18,600 2,188 Climbing FlightAware ADS-B
Sun 07:40:58 AM 38.8180 -78.4920 260° West 370 426 20,300 2,025 Climbing FlightAware ADS-B
Sun 07:41:33 AM 38.8090 -78.5650 261° West 374 430 21,300 1,725 Climbing FlightAware ADS-B
Sun 07:42:18 AM 38.7960 -78.6670 261° West 381 438 22,600 1,624 Climbing FlightAware ADS-B
Sun 07:42:58 AM 38.7840 -78.7550 260° West 388 447 23,600 1,341 Climbing FlightAware ADS-B
Sun 07:43:43 AM 38.7710 -78.8580 261° West 397 457 24,500 1,129 Climbing FlightAware ADS-B
Sun 07:44:23 AM 38.7580 -78.9550 260° West 408 470 25,200 1,114 Climbing FlightAware ADS-B
Sun 07:44:53 AM 38.7490 -79.0240 261° West 412 474 25,800 1,200 Climbing FlightAware ADS-B
Sun 07:45:33 AM 38.7360 -79.1210 260° West 418 481 26,600 1,200 Climbing FlightAware ADS-B
Sun 07:46:18 AM 38.7210 -79.2320 260° West 425 489 27,500 1,271 Climbing FlightAware ADS-B
Sun 07:46:58 AM 38.7070 -79.3340 260° West 426 490 28,400 1,950 Climbing FlightAware ADS-B
Sun 07:47:38 AM 38.6950 -79.4260 261° West 405 466 30,100 2,743 Climbing FlightAware ADS-B
Sun 07:48:08 AM 38.6850 -79.4980 260° West 390 449 31,600 1,629 Climbing FlightAware ADS-B
Sun 07:48:48 AM 38.6730 -79.5830 260° West 379 436 32,000 282 Climbing FlightAware ADS-B
Sun 07:49:33 AM 38.6590 -79.6890 260° West 382 440 32,000  Level FlightAware ADS-B
Sun 07:50:03 AM 38.6490 -79.7560 259° West 383 441 32,000  Level FlightAware ADS-B
Sun 07:50:48 AM 38.6350 -79.8540 260° West 382 440 32,000  Level FlightAware ADS-B
Sun 07:51:23 AM 38.6250 -79.9290 260° West 380 437 32,000  Level FlightAware ADS-B
Sun 07:51:58 AM 38.6140 -79.9990 259° West 380 437 32,000  Level FlightAware ADS-B
Sun 07:52:38 AM 38.6030 -80.0740 259° West 380 437 32,000  Level FlightAware ADS-B
Sun 07:53:18 AM 38.5910 -80.1490 258° West 380 437 32,000  Level FlightAware ADS-B
Sun 07:53:58 AM 38.5800 -80.2240 259° West 380 437 32,000  Level FlightAware ADS-B
Sun 07:54:48 AM 38.5650 -80.3180 258° West 380 437 32,000  Level FlightAware ADS-B
Sun 07:55:33 AM 38.5460 -80.4800 262° West 377 434 32,000  Level FlightAware ADS-B
Sun 07:56:18 AM 38.5310 -80.5810 259° West 379 436 32,000  Level FlightAware ADS-B
Sun 07:56:38 AM 38.5250 -80.6160 258° West 379 436 32,000  Level FlightAware ADS-B
Sun 07:57:28 AM 38.5080 -80.7350 260° West 380 437 32,000  Level FlightAware ADS-B
Sun 07:58:13 AM 38.4930 -80.8370 259° West 382 440 32,000  Level FlightAware ADS-B
Sun 07:59:08 AM 38.4920 -80.9550 269° West 380 437 32,000  Level FlightAware ADS-B
Sun 07:59:53 AM 38.5050 -81.0590 279° West 381 438 32,000  Level FlightAware ADS-B
Sun 08:00:28 AM 38.5150 -81.1350 280° West 383 441 32,000 92 Level FlightAware ADS-B
Sun 08:00:58 AM 38.5230 -81.1990 279° West 383 441 32,100 100 Climbing FlightAware ADS-B
Sun 08:01:28 AM 38.5320 -81.2690 279° West 384 442 32,100  Level FlightAware ADS-B
Sun 08:02:08 AM 38.5440 -81.3580 280° West 383 441 32,100 -86 Level FlightAware ADS-B
Sun 08:02:38 AM 38.5530 -81.4250 280° West 382 440 32,000 -75 Descending FlightAware ADS-B
Sun 08:03:28 AM 38.5520 -81.5370 269° West 387 445 32,000  Level FlightAware ADS-B
Sun 08:04:18 AM 38.5200 -81.6450 249° West 390 449 32,000  Level FlightAware ADS-B
Sun 08:05:03 AM 38.4910 -81.7440 250° West 390 449 32,000  Level FlightAware ADS-B
Sun 08:05:43 AM 38.4640 -81.8300 248° West 391 450 32,000  Level FlightAware ADS-B
Sun 08:06:23 AM 38.4390 -81.9120 249° West 391 450 32,000  Level FlightAware ADS-B
Sun 08:07:08 AM 38.4090 -82.0100 249° West 392 451 32,000  Level FlightAware ADS-B
Sun 08:07:48 AM 38.3820 -82.0970 248° West 395 455 32,000  Level FlightAware ADS-B
Sun 08:08:33 AM 38.3510 -82.1970 248° West 396 456 32,000  Level FlightAware ADS-B
Sun 08:09:13 AM 38.3240 -82.2840 248° West 397 457 32,000  Level FlightAware ADS-B
Sun 08:09:58 AM 38.2940 -82.3790 248° West 400 460 32,000  Level FlightAware ADS-B
Sun 08:10:38 AM 38.2670 -82.4650 248° West 401 461 32,000  Level FlightAware ADS-B
Sun 08:11:22 AM 38.2349 -82.5681 248° West 403 464 32,000  Level FlightAware ADS-B
Sun 08:11:53 AM 38.2140 -82.6320 247° West 400 460 32,000  Level FlightAware ADS-B
Sun 08:12:33 AM 38.1870 -82.7210 249° West 399 459 32,000  Level FlightAware ADS-B
Sun 08:13:03 AM 38.1660 -82.7860 248° West 397 457 32,000  Level FlightAware ADS-B
Sun 08:13:43 AM 38.1380 -82.8730 248° West 398 458 32,000  Level FlightAware ADS-B
Sun 08:14:23 AM 38.1110 -82.9600 248° West 401 461 32,000  Level FlightAware ADS-B
Sun 08:15:03 AM 38.0840 -83.0450 248° West 400 460 32,000  Level FlightAware ADS-B
Sun 08:15:48 AM 38.0550 -83.1300 247° West 400 460 32,000  Level FlightAware ADS-B
Sun 08:16:01 AM 38.0411 -83.1753 249° West 399 459 32,000  Level FlightAware ADS-B
Sun 08:16:32 AM 38.0199 -83.2422 248° West 397 457 32,000  Level FlightAware ADS-B
Sun 08:17:08 AM 37.9951 -83.3195 248° West 395 455 32,000  Level FlightAware ADS-B
Sun 08:17:39 AM 37.9736 -83.3859 248° West 394 453 32,000  Level FlightAware ADS-B
Sun 08:18:16 AM 37.9480 -83.4647 248° West 393 452 32,000  Level FlightAware ADS-B
Sun 08:20:23 AM 37.8600 -83.7320 247° West 391 450 32,000  Level FlightAware ADS-B
Sun 08:20:58 AM 37.8390 -83.7970 248° West 391 450 32,000  Level FlightAware ADS-B
Sun 08:21:43 AM 37.8050 -83.9000 247° West 389 448 32,000  Level FlightAware ADS-B
Sun 08:22:38 AM 37.7670 -84.0140 247° West 390 449 32,000  Level FlightAware ADS-B
Sun 08:23:28 AM 37.7350 -84.1100 247° West 390 449 32,000  Level FlightAware ADS-B
Sun 08:23:58 AM 37.7170 -84.1630 247° West 390 449 32,000  Level FlightAware ADS-B
Sun 08:24:43 AM 37.6800 -84.2780 248° West 383 441 32,000  Level FlightAware ADS-B
Sun 08:25:38 AM 37.6440 -84.3870 247° West 386 444 32,000  Level FlightAware ADS-B
Sun 08:26:13 AM 37.6180 -84.4610 246° West 383 441 32,000  Level FlightAware ADS-B
Sun 08:26:58 AM 37.5890 -84.5470 247° West 381 438 32,000  Level FlightAware ADS-B
Sun 08:27:33 AM 37.5650 -84.6140 246° West 381 438 32,000 1,440 Level FlightAware ADS-B
Sun 08:28:13 AM 37.5360 -84.7060 248° West 367 422 33,800 1,600 Climbing FlightAware ADS-B
Sun 08:28:48 AM 37.5130 -84.7730 247° West 362 417 34,000 160 Climbing FlightAware ADS-B
Sun 08:29:28 AM 37.4870 -84.8490 247° West 363 418 34,000  Level FlightAware ADS-B
Sun 08:30:28 AM 37.4453 -84.9720 247° West 368 423 34,000  Level FlightAware ADS-B
Sun 08:31:03 AM 37.4215 -85.0405 246° West 366 421 34,000  Level FlightAware ADS-B
Sun 08:31:33 AM 37.4010 -85.0991 246° West 367 422 34,000  Level FlightAware ADS-B
Sun 08:32:04 AM 37.3806 -85.1599 247° West 369 425 34,000  Level FlightAware ADS-B
Sun 08:32:34 AM 37.3598 -85.2188 246° West 368 423 34,000  Level FlightAware ADS-B
Sun 08:33:04 AM 37.3395 -85.2773 246° West 366 421 34,000  Level FlightAware ADS-B
Sun 08:33:36 AM 37.3181 -85.3400 247° West 368 423 34,000  Level FlightAware ADS-B
Sun 08:34:15 AM 37.2918 -85.4164 247° West 368 423 34,000  Level FlightAware ADS-B
Sun 08:34:53 AM 37.2680 -85.4850 246° West 368 423 34,000  Level FlightAware ADS-B
Sun 08:35:06 AM 37.2570 -85.5163 246° West 368 423 34,000 102 Level FlightAware ADS-B
Sun 08:35:52 AM 37.2255 -85.6058 246° West 365 420 34,100  Climbing FlightAware ADS-B
Sun 08:36:25 AM 37.2033 -85.6694 246° West 362 417 34,000 -91 Descending FlightAware ADS-B
Sun 08:36:58 AM 37.1820 -85.7310 247° West 362 417 34,000  Level FlightAware ADS-B
Sun 08:37:39 AM 37.1537 -85.8116 246° West 361 415 34,000  Level FlightAware ADS-B
Sun 08:38:10 AM 37.1327 -85.8709 246° West 361 415 34,000  Level FlightAware ADS-B
Sun 08:38:40 AM 37.1119 -85.9302 246° West 362 417 34,000  Level FlightAware ADS-B
Sun 08:39:11 AM 37.0910 -85.9877 246° West 363 418 34,000  Level FlightAware ADS-B
Sun 08:39:43 AM 37.0696 -86.0493 246° West 364 419 34,000  Level FlightAware ADS-B
Sun 08:40:14 AM 37.0483 -86.1090 246° West 365 420 34,000  Level FlightAware ADS-B
Sun 08:40:46 AM 37.0262 -86.1708 246° West 366 421 34,000  Level FlightAware ADS-B
Sun 08:41:16 AM 37.0051 -86.2291 246° West 368 423 34,000  Level FlightAware ADS-B
Sun 08:41:47 AM 36.9840 -86.2891 246° West 368 423 34,000 98 Level FlightAware ADS-B
Sun 08:42:17 AM 36.9627 -86.3476 246° West 368 423 34,100 98 Climbing FlightAware ADS-B
Sun 08:42:48 AM 36.9417 -86.4076 246° West 368 423 34,100  Level FlightAware ADS-B
Sun 08:43:23 AM 36.9190 -86.4670 244° Southwest 365 420 34,100 -109 Level FlightAware ADS-B
Sun 08:43:43 AM 36.8989 -86.5110 240° Southwest 365 420 34,000 -188 Descending FlightAware ADS-B
Sun 08:44:27 AM 36.8631 -86.5926 241° Southwest 366 421 33,900 -635 Descending FlightAware ADS-B
Sun 08:45:08 AM 36.8330 -86.6600 241° Southwest 362 417 33,100 -1,556 Descending FlightAware ADS-B
Sun 08:45:48 AM 36.8000 -86.7350 241° Southwest 376 433 31,800 -2,175 Descending FlightAware ADS-B
Sun 08:46:28 AM 36.7670 -86.8100 241° Southwest 391 450 30,200 -1,440 Descending FlightAware ADS-B
Sun 08:47:03 AM 36.7350 -86.8820 241° Southwest 406 467 30,000 -160 Descending FlightAware ADS-B
Sun 08:47:43 AM 36.6990 -86.9620 241° Southwest 406 467 30,000  Level FlightAware ADS-B
Sun 08:48:18 AM 36.6640 -87.0410 241° Southwest 409 471 30,000  Level FlightAware ADS-B
Sun 08:48:58 AM 36.6280 -87.1210 241° Southwest 406 467 30,000  Level FlightAware ADS-B
Sun 08:49:33 AM 36.5960 -87.1940 241° Southwest 405 466 30,000  Level FlightAware ADS-B
Sun 08:50:08 AM 36.5640 -87.2660 241° Southwest 408 470 30,000  Level FlightAware ADS-B
Sun 08:50:58 AM 36.5180 -87.3660 240° Southwest 406 467 30,000  Level FlightAware ADS-B
Sun 08:51:43 AM 36.4750 -87.4620 241° Southwest 411 473 30,000  Level FlightAware ADS-B
Sun 08:52:18 AM 36.4440 -87.5300 240° Southwest 408 470 30,000 -825 Level FlightAware ADS-B
Sun 08:53:03 AM 36.4010 -87.6240 240° Southwest 405 466 28,900 -2,175 Descending FlightAware ADS-B
Sun 08:53:38 AM 36.3690 -87.6940 240° Southwest 410 472 27,100 -2,175 Descending FlightAware ADS-B
Sun 08:54:23 AM 36.3250 -87.7940 241° Southwest 438 504 26,000 -733 Descending FlightAware ADS-B
Sun 08:55:08 AM 36.2810 -87.8880 240° Southwest 440 506 26,000  Level FlightAware ADS-B
Sun 08:56:13 AM 36.2180 -88.0250 240° Southwest 438 504 26,000  Level FlightAware ADS-B
Sun 08:57:18 AM 36.1550 -88.1610 240° Southwest 437 503 26,000  Level FlightAware ADS-B
Sun 08:57:48 AM 36.1290 -88.2170 240° Southwest 437 503 26,000  Level FlightAware ADS-B
Sun 08:58:38 AM 36.0860 -88.3090 240° Southwest 437 503 26,000  Level FlightAware ADS-B
Sun 08:59:08 AM 36.0600 -88.3640 240° Southwest 437 503 26,000  Level FlightAware ADS-B
Sun 08:59:38 AM 36.0350 -88.4190 241° Southwest 437 503 26,000  Level FlightAware ADS-B
Sun 09:00:08 AM 36.0090 -88.4740 240° Southwest 437 503 26,000  Level FlightAware ADS-B
Sun 09:00:56 AM 35.9481 -88.6083 240° Southwest 413 475 26,000 -833 Level Memphis Center
Sun 09:01:56 AM 35.8933 -88.7222 239° Southwest 408 470 24,500 -1,900 Descending Memphis Center
Sun 09:02:56 AM 35.8303 -88.8542 240° Southwest 408 470 22,200 -2,500 Descending Memphis Center
Sun 09:03:56 AM 35.7733 -88.9728 239° Southwest 408 470 19,500 -2,700 Descending Memphis Center
Sun 09:04:56 AM 35.7161 -89.0864 238° Southwest 408 470 16,800 -2,750 Descending Memphis Center
Sun 09:05:56 AM 35.6525 -89.1717 227° Southwest 390 449 14,000 -2,700 Descending Memphis Center
Sun 09:06:56 AM 35.5783 -89.2697 227° Southwest 390 449 11,400 -1,850 Descending Memphis Center
Sun 09:07:56 AM 35.5144 -89.3572 228° Southwest 372 428 10,300 -800 Descending Memphis Center
Sun 09:08:56 AM 35.4714 -89.4572 242° Southwest 342 394 9,800 -150 Descending Memphis Center
Sun 09:09:56 AM 35.4364 -89.5467 244° Southwest 300 345 10,000 -550 Climbing Memphis Center
Sun 09:10:56 AM 35.4036 -89.6311 245° Southwest 285 328 8,700 -1,400 Descending Memphis Center
Sun 09:11:56 AM 35.3708 -89.7153 244° Southwest 275 316 7,200 -1,400 Descending Memphis Center
Sun 09:12:56 AM 35.3294 -89.7919 237° Southwest 280 322 5,900 -1,200 Descending Memphis Center
Sun 09:13:56 AM 35.2775 -89.8408 218° Southwest 251 289 4,800 -1,150 Descending Memphis Center
Sun 09:14:56 AM 35.2317 -89.8919 222° Southwest 236 272 3,600 -1,105 Descending Memphis Center
Sun 09:15:12 AM 35.2167 -89.9000 204° Southwest 215 247 3,400 -711 Descending KMEM
Sun 09:16:12 AM 35.1833 -89.9500 231° Southwest 196 226 2,700 -600 Descending KMEM
Sun 09:17:12 AM 35.1500 -89.9667 202° Southwest 108 124 2,200 -526 Descending KMEM
Sun 09:18:06 AM 35.1167 -89.9667 180° South 110 127 1,700 -550 Descending KMEM
Sun 09:19:12 AM 35.0833 -89.9667 180° South 116 133 1,100 2,929 Descending KMEM
Sun 09:20:56 AM 35.0214 -89.9767 188° South 120 138 10,000 5,135 Climbing Memphis Center
Sun 09:22:00 AM 35.0333 -89.9667 345° North  Level FlightAware Approximate
Sun 09:29:00 AM 35.0424 -89.9767 345° North  Level Estimated
Sun 09:30:00 AM 35.0424 -89.9767 345° North  Level Estimated
Sun 09:31:00 AM 35.0424 -89.9767 345° North  Level Estimated
Sun 09:32:00 AM 35.0424 -89.9767 345° North  Level Estimated
Sun 09:33:00 AM 35.0424 -89.9767 345° North  Level Estimated
Sun 09:34:00 AM 35.0424 -89.9767 345° North  Level Estimated
Sun 09:35:00 AM 35.0424 -89.9767 345° North  Level Estimated
Sun 09:36:00 AM 35.0424 -89.9767 345° North  Level Estimated
Sun 09:37:00 AM 35.0424 -89.9767 345° North  Level Estimated
Sun 09:38:00 AM 35.0424 -89.9767 345° North  Level Estimated
Sun 09:39:00 AM 35.0424 -89.9767 345° North  Level Estimated
Sun 09:40:00 AM 35.0424 -89.9767 345° North  Level Estimated

Login

Don't have an account? Register now (free) for customized features, flight alerts, and more!